sensor_id;sensor_type;location;lat;lon;timestamp;pressure;altitude;pressure_sealevel;temperature;humidity
26320;BME280;14024;52.226;5.200;2024-02-16T00:01:32;100939.06;;;11.85;100.00
26320;BME280;14024;52.226;5.200;2024-02-16T00:03:57;100940.97;;;11.83;100.00
26320;BME280;14024;52.226;5.200;2024-02-16T00:06:26;100934.09;;;11.79;100.00
26320;BME280;14024;52.226;5.200;2024-02-16T00:08:53;100937.53;;;11.81;100.00
26320;BME280;14024;52.226;5.200;2024-02-16T00:11:22;100938.44;;;11.80;100.00
26320;BME280;14024;52.226;5.200;2024-02-16T00:13:50;100932.38;;;11.78;100.00
26320;BME280;14024;52.226;5.200;2024-02-16T00:16:16;100932.38;;;11.78;100.00
26320;BME280;14024;52.226;5.200;2024-02-16T00:18:43;100933.38;;;11.76;100.00
26320;BME280;14024;52.226;5.200;2024-02-16T00:21:09;100928.94;;;11.76;100.00
26320;BME280;14024;52.226;5.200;2024-02-16T00:23:35;100940.66;;;11.72;100.00
26320;BME280;14024;52.226;5.200;2024-02-16T00:26:06;100932.00;;;11.69;100.00
26320;BME280;14024;52.226;5.200;2024-02-16T00:28:33;100931.13;;;11.68;100.00
26320;BME280;14024;52.226;5.200;2024-02-16T00:30:59;100931.13;;;11.68;100.00
26320;BME280;14024;52.226;5.200;2024-02-16T00:33:24;100934.88;;;11.64;100.00
26320;BME280;14024;52.226;5.200;2024-02-16T00:35:50;100930.44;;;11.64;100.00
26320;BME280;14024;52.226;5.200;2024-02-16T00:38:19;100928.78;;;11.62;100.00
26320;BME280;14024;52.226;5.200;2024-02-16T00:40:47;100929.75;;;11.61;100.00
26320;BME280;14024;52.226;5.200;2024-02-16T00:43:12;100936.75;;;11.62;100.00
26320;BME280;14024;52.226;5.200;2024-02-16T00:45:42;100929.75;;;11.61;100.00
26320;BME280;14024;52.226;5.200;2024-02-16T00:48:10;100927.84;;;11.63;100.00
26320;BME280;14024;52.226;5.200;2024-02-16T00:50:36;100931.56;;;11.60;100.00
26320;BME280;14024;52.226;5.200;2024-02-16T00:53:02;100925.44;;;11.58;100.00
26320;BME280;14024;52.226;5.200;2024-02-16T00:55:29;100923.66;;;11.59;100.00
26320;BME280;14024;52.226;5.200;2024-02-16T00:57:55;100921.19;;;11.56;100.00
26320;BME280;14024;52.226;5.200;2024-02-16T01:00:21;100922.91;;;11.57;100.00
26320;BME280;14024;52.226;5.200;2024-02-16T01:02:48;100922.03;;;11.56;100.00
26320;BME280;14024;52.226;5.200;2024-02-16T01:05:14;100920.13;;;11.58;100.00
26320;BME280;14024;52.226;5.200;2024-02-16T01:07:43;100912.34;;;11.55;100.00
26320;BME280;14024;52.226;5.200;2024-02-16T01:10:10;100912.59;;;11.51;100.00
26320;BME280;14024;52.226;5.200;2024-02-16T01:12:35;100912.41;;;11.54;100.00
26320;BME280;14024;52.226;5.200;2024-02-16T01:15:01;100920.50;;;11.52;100.00
26320;BME280;14024;52.226;5.200;2024-02-16T01:17:28;100904.69;;;11.49;100.00
26320;BME280;14024;52.226;5.200;2024-02-16T01:19:55;100901.81;;;11.54;100.00
26320;BME280;14024;52.226;5.200;2024-02-16T01:22:21;100900.09;;;11.53;100.00
26320;BME280;14024;52.226;5.200;2024-02-16T01:24:47;100895.63;;;11.53;100.00
26320;BME280;14024;52.226;5.200;2024-02-16T01:27:14;100900.81;;;11.56;100.00
26320;BME280;14024;52.226;5.200;2024-02-16T01:29:39;100896.44;;;11.55;100.00
26320;BME280;14024;52.226;5.200;2024-02-16T01:32:05;100901.66;;;11.57;100.00
26320;BME280;14024;52.226;5.200;2024-02-16T01:34:30;100896.34;;;11.57;100.00
26320;BME280;14024;52.226;5.200;2024-02-16T01:36:57;100886.56;;;11.57;100.00
26320;BME280;14024;52.226;5.200;2024-02-16T01:39:27;100889.16;;;11.59;100.00
26320;BME280;14024;52.226;5.200;2024-02-16T01:41:54;100885.56;;;11.60;100.00
26320;BME280;14024;52.226;5.200;2024-02-16T01:44:21;100887.44;;;11.58;100.00
26320;BME280;14024;52.226;5.200;2024-02-16T01:46:47;100903.34;;;11.58;100.00
26320;BME280;14024;52.226;5.200;2024-02-16T01:49:13;100895.63;;;11.53;100.00
26320;BME280;14024;52.226;5.200;2024-02-16T01:51:40;100889.47;;;11.53;100.00
26320;BME280;14024;52.226;5.200;2024-02-16T01:54:06;100887.66;;;11.53;100.00
26320;BME280;14024;52.226;5.200;2024-02-16T01:56:33;100887.59;;;11.55;100.00
26320;BME280;14024;52.226;5.200;2024-02-16T01:58:59;100886.81;;;11.53;100.00
26320;BME280;14024;52.226;5.200;2024-02-16T02:01:24;100880.56;;;11.54;100.00
26320;BME280;14024;52.226;5.200;2024-02-16T02:03:49;100880.56;;;11.54;100.00
26320;BME280;14024;52.226;5.200;2024-02-16T02:06:15;100862.84;;;11.54;100.00
26320;BME280;14024;52.226;5.200;2024-02-16T02:08:41;100851.81;;;11.62;100.00
26320;BME280;14024;52.226;5.200;2024-02-16T02:11:07;100856.28;;;11.61;100.00
26320;BME280;14024;52.226;5.200;2024-02-16T02:13:32;100882.03;;;11.59;100.00
26320;BME280;14024;52.226;5.200;2024-02-16T02:15:58;100885.63;;;11.58;100.00
26320;BME280;14024;52.226;5.200;2024-02-16T02:18:24;100882.13;;;11.58;100.00
26320;BME280;14024;52.226;5.200;2024-02-16T02:20:50;100872.28;;;11.60;100.00
26320;BME280;14024;52.226;5.200;2024-02-16T02:23:21;100873.53;;;11.53;100.00
26320;BME280;14024;52.226;5.200;2024-02-16T02:25:46;100870.13;;;11.51;100.00
26320;BME280;14024;52.226;5.200;2024-02-16T02:28:14;100867.53;;;11.49;100.00
26320;BME280;14024;52.226;5.200;2024-02-16T02:30:41;100864.03;;;11.49;100.00
26320;BME280;14024;52.226;5.200;2024-02-16T02:33:06;100859.84;;;11.45;100.00
26320;BME280;14024;52.226;5.200;2024-02-16T02:35:32;100860.00;;;11.42;100.00
26320;BME280;14024;52.226;5.200;2024-02-16T02:37:57;100857.28;;;11.43;100.00
26320;BME280;14024;52.226;5.200;2024-02-16T02:40:24;100864.47;;;11.41;100.00
26320;BME280;14024;52.226;5.200;2024-02-16T02:42:51;100857.59;;;11.37;100.00
26320;BME280;14024;52.226;5.200;2024-02-16T02:45:16;100853.16;;;11.38;100.00
26320;BME280;14024;52.226;5.200;2024-02-16T02:47:42;100855.81;;;11.38;100.00
26320;BME280;14024;52.226;5.200;2024-02-16T02:50:09;100848.78;;;11.37;100.00
26320;BME280;14024;52.226;5.200;2024-02-16T02:52:35;100845.81;;;11.43;100.00
26320;BME280;14024;52.226;5.200;2024-02-16T02:55:01;100845.19;;;11.38;100.00
26320;BME280;14024;52.226;5.200;2024-02-16T02:57:27;100844.34;;;11.37;100.00
26320;BME280;14024;52.226;5.200;2024-02-16T02:59:53;100837.91;;;11.41;100.00
26320;BME280;14024;52.226;5.200;2024-02-16T03:02:18;100838.00;;;11.40;100.00
26320;BME280;14024;52.226;5.200;2024-02-16T03:04:43;100832.69;;;11.40;100.00
26320;BME280;14024;52.226;5.200;2024-02-16T03:07:09;100836.13;;;11.42;100.00
26320;BME280;14024;52.226;5.200;2024-02-16T03:09:34;100844.09;;;11.42;100.00
26320;BME280;14024;52.226;5.200;2024-02-16T03:11:59;100838.78;;;11.42;100.00
26320;BME280;14024;52.226;5.200;2024-02-16T03:14:25;100835.25;;;11.41;100.00
26320;BME280;14024;52.226;5.200;2024-02-16T03:16:50;100834.41;;;11.41;100.00
26320;BME280;14024;52.226;5.200;2024-02-16T03:19:15;100827.38;;;11.40;100.00
26320;BME280;14024;52.226;5.200;2024-02-16T03:21:41;100830.03;;;11.40;100.00
26320;BME280;14024;52.226;5.200;2024-02-16T03:24:06;100823.97;;;11.38;100.00
26320;BME280;14024;52.226;5.200;2024-02-16T03:26:31;100826.50;;;11.39;100.00
26320;BME280;14024;52.226;5.200;2024-02-16T03:28:57;100825.84;;;11.36;100.00
26320;BME280;14024;52.226;5.200;2024-02-16T03:31:23;100827.56;;;11.37;100.00
26320;BME280;14024;52.226;5.200;2024-02-16T03:33:50;100835.69;;;11.34;100.00
26320;BME280;14024;52.226;5.200;2024-02-16T03:36:19;100833.78;;;11.36;100.00
26320;BME280;14024;52.226;5.200;2024-02-16T03:38:45;100831.31;;;11.33;100.00
26320;BME280;14024;52.226;5.200;2024-02-16T03:41:13;100829.59;;;11.32;100.00
26320;BME280;14024;52.226;5.200;2024-02-16T03:43:40;100832.59;;;11.26;100.00
26320;BME280;14024;52.226;5.200;2024-02-16T03:46:07;100836.19;;;11.25;100.00
26320;BME280;14024;52.226;5.200;2024-02-16T03:48:33;100829.16;;;11.24;100.00
26320;BME280;14024;52.226;5.200;2024-02-16T03:50:58;100829.34;;;11.21;100.00
26320;BME280;14024;52.226;5.200;2024-02-16T03:53:24;100824.78;;;11.23;100.00
26320;BME280;14024;52.226;5.200;2024-02-16T03:55:49;100817.94;;;11.18;100.00
26320;BME280;14024;52.226;5.200;2024-02-16T03:58:16;100824.03;;;11.21;100.00
26320;BME280;14024;52.226;5.200;2024-02-16T04:00:42;100829.34;;;11.21;100.00
26320;BME280;14024;52.226;5.200;2024-02-16T04:03:08;100834.53;;;11.22;100.00
26320;BME280;14024;52.226;5.200;2024-02-16T04:05:40;100829.16;;;11.24;100.00
26320;BME280;14024;52.226;5.200;2024-02-16T04:08:06;100840.63;;;11.24;100.00
26320;BME280;14024;52.226;5.200;2024-02-16T04:10:33;100836.31;;;11.22;100.00
26320;BME280;14024;52.226;5.200;2024-02-16T04:12:59;100830.00;;;11.24;100.00
26320;BME280;14024;52.226;5.200;2024-02-16T04:15:25;100835.38;;;11.23;100.00
26320;BME280;14024;52.226;5.200;2024-02-16T04:17:52;100832.91;;;11.19;100.00
26320;BME280;14024;52.226;5.200;2024-02-16T04:20:19;100822.22;;;11.21;100.00
26320;BME280;14024;52.226;5.200;2024-02-16T04:22:44;100822.47;;;11.16;100.00
26320;BME280;14024;52.226;5.200;2024-02-16T04:25:10;100831.38;;;11.15;100.00
26320;BME280;14024;52.226;5.200;2024-02-16T04:27:36;100829.81;;;11.11;100.00
26320;BME280;14024;52.226;5.200;2024-02-16T04:30:03;100825.44;;;11.10;100.00
26320;BME280;14024;52.226;5.200;2024-02-16T04:32:29;100811.31;;;11.10;100.00
26320;BME280;14024;52.226;5.200;2024-02-16T04:34:54;100813.44;;;11.03;100.00
26320;BME280;14024;52.226;5.200;2024-02-16T04:37:25;100816.00;;;11.05;100.00
26320;BME280;14024;52.226;5.200;2024-02-16T04:39:52;100820.56;;;11.03;100.00
26320;BME280;14024;52.226;5.200;2024-02-16T04:42:19;100828.59;;;11.01;100.00
26320;BME280;14024;52.226;5.200;2024-02-16T04:44:44;100830.44;;;10.99;100.00
26320;BME280;14024;52.226;5.200;2024-02-16T04:47:09;100834.81;;;11.00;100.00
26320;BME280;14024;52.226;5.200;2024-02-16T04:49:35;100833.09;;;10.99;100.00
26320;BME280;14024;52.226;5.200;2024-02-16T04:52:00;100826.00;;;11.00;100.00
26320;BME280;14024;52.226;5.200;2024-02-16T04:54:26;100826.88;;;11.00;100.00
26320;BME280;14024;52.226;5.200;2024-02-16T04:56:51;100830.44;;;10.99;100.00
26320;BME280;14024;52.226;5.200;2024-02-16T04:59:18;100829.75;;;10.96;100.00
26320;BME280;14024;52.226;5.200;2024-02-16T05:01:45;100836.84;;;10.95;100.00
26320;BME280;14024;52.226;5.200;2024-02-16T05:04:11;100841.41;;;10.93;100.00
26320;BME280;14024;52.226;5.200;2024-02-16T05:06:39;100830.78;;;10.93;100.00
26320;BME280;14024;52.226;5.200;2024-02-16T05:09:05;100830.78;;;10.93;100.00
26320;BME280;14024;52.226;5.200;2024-02-16T05:11:34;100830.06;;;10.90;100.00
26320;BME280;14024;52.226;5.200;2024-02-16T05:14:01;100825.63;;;10.90;100.00
26320;BME280;14024;52.226;5.200;2024-02-16T05:16:28;100825.63;;;10.90;100.00
26320;BME280;14024;52.226;5.200;2024-02-16T05:18:55;100819.38;;;10.91;100.00
26320;BME280;14024;52.226;5.200;2024-02-16T05:21:21;100817.66;;;10.90;100.00
26320;BME280;14024;52.226;5.200;2024-02-16T05:23:47;100823.16;;;10.87;100.00
26320;BME280;14024;52.226;5.200;2024-02-16T05:26:13;100812.78;;;10.83;100.00
26320;BME280;14024;52.226;5.200;2024-02-16T05:28:38;100814.56;;;10.82;100.00
26320;BME280;14024;52.226;5.200;2024-02-16T05:31:13;100809.38;;;10.81;100.00
26320;BME280;14024;52.226;5.200;2024-02-16T05:33:46;100805.84;;;10.80;100.00
26320;BME280;14024;52.226;5.200;2024-02-16T05:36:11;100812.84;;;10.81;100.00
26320;BME280;14024;52.226;5.200;2024-02-16T05:38:37;100814.66;;;10.81;100.00
26320;BME280;14024;52.226;5.200;2024-02-16T05:41:07;100812.94;;;10.80;100.00
26320;BME280;14024;52.226;5.200;2024-02-16T05:43:33;100814.56;;;10.82;100.00
26320;BME280;14024;52.226;5.200;2024-02-16T05:46:00;100824.25;;;10.83;100.00
26320;BME280;14024;52.226;5.200;2024-02-16T05:48:25;100821.81;;;10.79;100.00
26320;BME280;14024;52.226;5.200;2024-02-16T05:51:00;100820.03;;;10.79;100.00
26320;BME280;14024;52.226;5.200;2024-02-16T05:53:26;100819.25;;;10.77;100.00
26320;BME280;14024;52.226;5.200;2024-02-16T05:55:53;100824.56;;;10.77;100.00
26320;BME280;14024;52.226;5.200;2024-02-16T05:58:19;100817.63;;;10.74;100.00
26320;BME280;14024;52.226;5.200;2024-02-16T06:00:44;100826.44;;;10.75;100.00
26320;BME280;14024;52.226;5.200;2024-02-16T06:03:12;100825.50;;;10.76;100.00
26320;BME280;14024;52.226;5.200;2024-02-16T06:05:38;100827.31;;;10.76;100.00
26320;BME280;14024;52.226;5.200;2024-02-16T06:08:04;100829.09;;;10.75;100.00
26320;BME280;14024;52.226;5.200;2024-02-16T06:10:29;100833.38;;;10.78;100.00
26320;BME280;14024;52.226;5.200;2024-02-16T06:12:55;100829.00;;;10.77;100.00
26320;BME280;14024;52.226;5.200;2024-02-16T06:15:20;100839.53;;;10.78;100.00
26320;BME280;14024;52.226;5.200;2024-02-16T06:17:48;100841.25;;;10.79;100.00
26320;BME280;14024;52.226;5.200;2024-02-16T06:20:14;100841.19;;;10.81;100.00
26320;BME280;14024;52.226;5.200;2024-02-16T06:22:40;100846.56;;;10.79;100.00
26320;BME280;14024;52.226;5.200;2024-02-16T06:25:05;100850.94;;;10.80;100.00
26320;BME280;14024;52.226;5.200;2024-02-16T06:27:31;100857.78;;;10.84;100.00
26320;BME280;14024;52.226;5.200;2024-02-16T06:29:57;100849.91;;;10.83;100.00
26320;BME280;14024;52.226;5.200;2024-02-16T06:32:24;100859.47;;;10.85;100.00
26320;BME280;14024;52.226;5.200;2024-02-16T06:40:11;100861.06;;;10.89;100.00
26320;BME280;14024;52.226;5.200;2024-02-16T06:42:37;100861.66;;;10.94;100.00
26320;BME280;14024;52.226;5.200;2024-02-16T06:45:04;100865.09;;;10.96;100.00
26320;BME280;14024;52.226;5.200;2024-02-16T06:47:31;100870.22;;;10.99;100.00
26320;BME280;14024;52.226;5.200;2024-02-16T06:49:56;100881.63;;;11.01;100.00
26320;BME280;14024;52.226;5.200;2024-02-16T06:52:22;100873.66;;;11.01;100.00
26320;BME280;14024;52.226;5.200;2024-02-16T06:54:47;100876.09;;;11.06;100.00
26320;BME280;14024;52.226;5.200;2024-02-16T06:57:14;100881.16;;;11.10;100.00
26320;BME280;14024;52.226;5.200;2024-02-16T06:59:39;100883.63;;;11.13;100.00
26320;BME280;14024;52.226;5.200;2024-02-16T07:02:05;100881.91;;;11.12;100.00
26320;BME280;14024;52.226;5.200;2024-02-16T07:04:32;100884.66;;;11.11;100.00
26320;BME280;14024;52.226;5.200;2024-02-16T07:06:58;100890.47;;;11.17;100.00
26320;BME280;14024;52.226;5.200;2024-02-16T07:09:23;100892.03;;;11.22;100.00
26320;BME280;14024;52.226;5.200;2024-02-16T07:11:48;100894.69;;;11.22;100.00
26320;BME280;14024;52.226;5.200;2024-02-16T07:14:15;100899.00;;;11.24;100.00
26320;BME280;14024;52.226;5.200;2024-02-16T07:16:44;100901.41;;;11.29;100.00
26320;BME280;14024;52.226;5.200;2024-02-16T07:19:10;100907.47;;;11.31;100.00
26320;BME280;14024;52.226;5.200;2024-02-16T07:21:36;100895.94;;;11.32;100.00
26320;BME280;14024;52.226;5.200;2024-02-16T07:24:01;100907.47;;;11.31;100.00
26320;BME280;14024;52.226;5.200;2024-02-16T07:26:28;100901.22;;;11.32;100.00
26320;BME280;14024;52.226;5.200;2024-02-16T07:28:55;100898.41;;;11.35;100.00
26320;BME280;14024;52.226;5.200;2024-02-16T07:31:21;100903.34;;;11.42;100.00
26320;BME280;14024;52.226;5.200;2024-02-16T07:33:46;100904.09;;;11.44;100.00
26320;BME280;14024;52.226;5.200;2024-02-16T07:36:11;100916.25;;;11.48;100.00
26320;BME280;14024;52.226;5.200;2024-02-16T07:38:37;100923.03;;;11.54;100.00
26320;BME280;14024;52.226;5.200;2024-02-16T07:41:02;100923.72;;;11.57;100.00
26320;BME280;14024;52.226;5.200;2024-02-16T07:43:28;100917.41;;;11.60;100.00
26320;BME280;14024;52.226;5.200;2024-02-16T07:45:53;100921.53;;;11.66;100.00
26320;BME280;14024;52.226;5.200;2024-02-16T07:48:19;100932.84;;;11.69;100.00
26320;BME280;14024;52.226;5.200;2024-02-16T07:50:46;100937.88;;;11.75;100.00
26320;BME280;14024;52.226;5.200;2024-02-16T07:53:13;100939.25;;;11.82;100.00
26320;BME280;14024;52.226;5.200;2024-02-16T07:55:42;100942.50;;;11.87;100.00
26320;BME280;14024;52.226;5.200;2024-02-16T07:58:07;100951.09;;;11.92;100.00
26320;BME280;14024;52.226;5.200;2024-02-16T08:00:32;100947.31;;;11.96;100.00
26320;BME280;14024;52.226;5.200;2024-02-16T08:02:58;100958.19;;;12.07;100.00
26320;BME280;14024;52.226;5.200;2024-02-16T08:05:24;100966.03;;;12.11;100.00
26320;BME280;14024;52.226;5.200;2024-02-16T08:07:51;100964.97;;;12.13;100.00
26320;BME280;14024;52.226;5.200;2024-02-16T08:10:23;100964.81;;;12.16;100.00
26320;BME280;14024;52.226;5.200;2024-02-16T08:12:51;100961.06;;;12.20;100.00
26320;BME280;14024;52.226;5.200;2024-02-16T08:15:17;100962.75;;;12.21;100.00
26320;BME280;14024;52.226;5.200;2024-02-16T08:17:56;100967.13;;;12.22;100.00
26320;BME280;14024;52.226;5.200;2024-02-16T08:20:21;100975.88;;;12.24;100.00
26320;BME280;14024;52.226;5.200;2024-02-16T08:22:47;100969.53;;;12.27;100.00
26320;BME280;14024;52.226;5.200;2024-02-16T08:25:12;100972.19;;;12.27;100.00
26320;BME280;14024;52.226;5.200;2024-02-16T08:27:37;100983.50;;;12.30;100.00
26320;BME280;14024;52.226;5.200;2024-02-16T08:30:04;100984.34;;;12.31;100.00
26320;BME280;14024;52.226;5.200;2024-02-16T08:32:30;100987.69;;;12.34;100.00
26320;BME280;14024;52.226;5.200;2024-02-16T08:34:58;100984.97;;;12.36;100.00
26320;BME280;14024;52.226;5.200;2024-02-16T08:37:25;100985.66;;;12.39;100.00
26320;BME280;14024;52.226;5.200;2024-02-16T08:39:55;100988.03;;;12.44;100.00
26320;BME280;14024;52.226;5.200;2024-02-16T08:42:23;100988.03;;;12.44;100.00
26320;BME280;14024;52.226;5.200;2024-02-16T08:44:49;100990.56;;;12.47;100.00
26320;BME280;14024;52.226;5.200;2024-02-16T08:47:14;101002.72;;;12.51;100.00
26320;BME280;14024;52.226;5.200;2024-02-16T08:49:40;101006.00;;;12.56;100.00
26320;BME280;14024;52.226;5.200;2024-02-16T08:52:07;101006.56;;;12.61;100.00
26320;BME280;14024;52.226;5.200;2024-02-16T08:54:36;101005.47;;;12.65;100.00
26320;BME280;14024;52.226;5.200;2024-02-16T08:57:16;101014.00;;;12.70;100.00
26320;BME280;14024;52.226;5.200;2024-02-16T08:59:42;101018.31;;;12.73;100.00
26320;BME280;14024;52.226;5.200;2024-02-16T09:02:09;101011.97;;;12.75;100.00
26320;BME280;14024;52.226;5.200;2024-02-16T09:04:35;101011.03;;;12.76;100.00
26320;BME280;14024;52.226;5.200;2024-02-16T09:07:04;101021.66;;;12.76;100.00
26320;BME280;14024;52.226;5.200;2024-02-16T09:09:29;101033.66;;;12.83;100.00
26320;BME280;14024;52.226;5.200;2024-02-16T09:11:55;101032.72;;;12.84;100.00
26320;BME280;14024;52.226;5.200;2024-02-16T09:14:21;101034.97;;;12.76;100.00
26320;BME280;14024;52.226;5.200;2024-02-16T09:16:50;101039.41;;;12.76;100.00
26320;BME280;14024;52.226;5.200;2024-02-16T09:19:18;101046.72;;;12.72;100.00
26320;BME280;14024;52.226;5.200;2024-02-16T09:21:45;101048.78;;;12.67;100.00
26320;BME280;14024;52.226;5.200;2024-02-16T09:24:10;101057.94;;;12.62;100.00
26320;BME280;14024;52.226;5.200;2024-02-16T09:26:42;101063.19;;;12.63;100.00
26320;BME280;14024;52.226;5.200;2024-02-16T09:29:07;101071.34;;;12.60;100.00
26320;BME280;14024;52.226;5.200;2024-02-16T09:31:32;101081.81;;;12.63;100.00
26320;BME280;14024;52.226;5.200;2024-02-16T09:33:58;101073.63;;;12.66;100.00
26320;BME280;14024;52.226;5.200;2024-02-16T09:36:23;101079.94;;;12.65;100.00
26320;BME280;14024;52.226;5.200;2024-02-16T09:38:49;101087.13;;;12.63;100.00
26320;BME280;14024;52.226;5.200;2024-02-16T09:41:17;101089.59;;;12.66;100.00
26320;BME280;14024;52.226;5.200;2024-02-16T09:43:42;101099.97;;;12.71;100.00
26320;BME280;14024;52.226;5.200;2024-02-16T09:46:08;101099.13;;;12.70;100.00
26320;BME280;14024;52.226;5.200;2024-02-16T09:48:33;101097.25;;;12.72;100.00
26320;BME280;14024;52.226;5.200;2024-02-16T09:50:59;101099.91;;;12.72;100.00
26320;BME280;14024;52.226;5.200;2024-02-16T09:53:26;101103.16;;;12.77;100.00
26320;BME280;14024;52.226;5.200;2024-02-16T09:55:52;101110.38;;;12.75;100.00
26320;BME280;14024;52.226;5.200;2024-02-16T09:58:19;101112.16;;;12.75;100.00
26320;BME280;14024;52.226;5.200;2024-02-16T10:00:54;101125.72;;;12.70;100.00
26320;BME280;14024;52.226;5.200;2024-02-16T10:03:28;101125.97;;;12.66;100.00
26320;BME280;14024;52.226;5.200;2024-02-16T10:06:10;101133.13;;;12.65;100.00
26320;BME280;14024;52.226;5.200;2024-02-16T10:08:58;101141.09;;;12.65;100.00
26320;BME280;14024;52.226;5.200;2024-02-16T10:11:26;101151.63;;;12.67;100.00
26320;BME280;14024;52.226;5.200;2024-02-16T10:14:00;101166.47;;;12.55;100.00
26320;BME280;14024;52.226;5.200;2024-02-16T10:16:27;101176.66;;;12.47;100.00
26320;BME280;14024;52.226;5.200;2024-02-16T10:18:56;101164.28;;;12.46;100.00
26320;BME280;14024;52.226;5.200;2024-02-16T10:21:28;101168.53;;;12.33;100.00
26320;BME280;14024;52.226;5.200;2024-02-16T10:24:01;101174.16;;;12.27;100.00
26320;BME280;14024;52.226;5.200;2024-02-16T10:26:30;101180.66;;;12.21;100.00
26320;BME280;14024;52.226;5.200;2024-02-16T10:28:57;101198.81;;;12.13;100.00
26320;BME280;14024;52.226;5.200;2024-02-16T10:31:24;101197.00;;;11.96;100.00
26320;BME280;14024;52.226;5.200;2024-02-16T10:34:11;101213.31;;;11.89;100.00
26320;BME280;14024;52.226;5.200;2024-02-16T10:36:38;101215.59;;;11.79;100.00
26320;BME280;14024;52.226;5.200;2024-02-16T10:39:05;101224.34;;;11.81;100.00
26320;BME280;14024;52.226;5.200;2024-02-16T10:41:36;101239.81;;;11.72;100.00
26320;BME280;14024;52.226;5.200;2024-02-16T10:44:03;101254.78;;;11.74;100.00
26320;BME280;14024;52.226;5.200;2024-02-16T10:46:29;101258.84;;;11.81;100.00
26320;BME280;14024;52.226;5.200;2024-02-16T10:48:55;101266.91;;;11.61;100.00
26320;BME280;14024;52.226;5.200;2024-02-16T10:51:27;101263.31;;;11.62;100.00
26320;BME280;14024;52.226;5.200;2024-02-16T10:53:54;101269.56;;;11.61;100.00
26320;BME280;14024;52.226;5.200;2024-02-16T10:56:34;101271.09;;;11.48;100.00
26320;BME280;14024;52.226;5.200;2024-02-16T10:59:11;101270.28;;;11.46;100.00
26320;BME280;14024;52.226;5.200;2024-02-16T11:01:41;101271.00;;;11.49;100.00
26320;BME280;14024;52.226;5.200;2024-02-16T11:04:35;101272.47;;;11.38;100.00
26320;BME280;14024;52.226;5.200;2024-02-16T11:07:01;101255.38;;;11.43;100.00
26320;BME280;14024;52.226;5.200;2024-02-16T11:09:39;101261.53;;;11.44;100.00
26320;BME280;14024;52.226;5.200;2024-02-16T11:12:06;101266.72;;;11.47;100.00
26320;BME280;14024;52.226;5.200;2024-02-16T11:14:41;101270.06;;;11.50;100.00
26320;BME280;14024;52.226;5.200;2024-02-16T11:17:14;101277.03;;;11.53;100.00
26320;BME280;14024;52.226;5.200;2024-02-16T11:19:44;101280.91;;;11.46;100.00
26320;BME280;14024;52.226;5.200;2024-02-16T11:22:10;101286.38;;;11.43;100.00
26320;BME280;14024;52.226;5.200;2024-02-16T11:24:37;101275.75;;;11.43;100.00
26320;BME280;14024;52.226;5.200;2024-02-16T11:27:08;101285.94;;;11.52;100.00
26320;BME280;14024;52.226;5.200;2024-02-16T11:29:35;101280.91;;;11.46;100.00
26320;BME280;14024;52.226;5.200;2024-02-16T11:32:03;101281.72;;;11.48;100.00
26320;BME280;14024;52.226;5.200;2024-02-16T11:34:29;101281.13;;;11.41;100.00
26320;BME280;14024;52.226;5.200;2024-02-16T11:36:56;101272.59;;;11.35;100.00
26320;BME280;14024;52.226;5.200;2024-02-16T11:39:22;101294.47;;;11.40;100.00
26320;BME280;14024;52.226;5.200;2024-02-16T11:41:48;101306.31;;;11.33;100.00
26320;BME280;14024;52.226;5.200;2024-02-16T11:44:16;101322.50;;;11.27;100.00
26320;BME280;14024;52.226;5.200;2024-02-16T11:46:42;101333.00;;;11.30;100.00
26320;BME280;14024;52.226;5.200;2024-02-16T11:49:08;101327.09;;;11.23;100.00
26320;BME280;14024;52.226;5.200;2024-02-16T11:51:35;101340.41;;;11.22;100.00
26320;BME280;14024;52.226;5.200;2024-02-16T11:54:01;101344.03;;;11.21;100.00
26320;BME280;14024;52.226;5.200;2024-02-16T11:56:27;101340.50;;;11.20;100.00
26320;BME280;14024;52.226;5.200;2024-02-16T11:58:53;101360.94;;;11.18;100.00
26320;BME280;14024;52.226;5.200;2024-02-16T12:01:19;101360.06;;;11.17;100.00
26320;BME280;14024;52.226;5.200;2024-02-16T12:03:44;101371.03;;;11.10;100.00
26320;BME280;14024;52.226;5.200;2024-02-16T12:06:19;101361.09;;;11.15;100.00
26320;BME280;14024;52.226;5.200;2024-02-16T12:08:45;101360.38;;;11.11;100.00
26320;BME280;14024;52.226;5.200;2024-02-16T12:11:11;101376.81;;;10.99;100.00
26320;BME280;14024;52.226;5.200;2024-02-16T12:13:36;101389.00;;;11.03;100.00
26320;BME280;14024;52.226;5.200;2024-02-16T12:16:01;101391.44;;;11.08;100.00
26320;BME280;14024;52.226;5.200;2024-02-16T12:18:28;101401.00;;;10.92;100.00
26320;BME280;14024;52.226;5.200;2024-02-16T12:21:05;101397.63;;;10.88;100.00
26320;BME280;14024;52.226;5.200;2024-02-16T12:23:31;101409.31;;;10.84;100.00
26320;BME280;14024;52.226;5.200;2024-02-16T12:25:58;101403.88;;;10.87;100.00
26320;BME280;14024;52.226;5.200;2024-02-16T12:28:25;101407.31;;;10.89;100.00
26320;BME280;14024;52.226;5.200;2024-02-16T12:30:51;101399.94;;;10.96;100.00
26320;BME280;14024;52.226;5.200;2024-02-16T12:33:16;101397.25;;;10.97;100.00
26320;BME280;14024;52.226;5.200;2024-02-16T12:35:42;101404.50;;;11.12;100.00
26320;BME280;14024;52.226;5.200;2024-02-16T12:38:07;101409.56;;;11.18;100.00
26320;BME280;14024;52.226;5.200;2024-02-16T12:40:32;101417.66;;;11.15;100.00
26320;BME280;14024;52.226;5.200;2024-02-16T12:42:58;101417.47;;;11.20;100.00
26320;BME280;14024;52.226;5.200;2024-02-16T12:45:26;101424.56;;;11.19;100.00